sensor_id;sensor_type;location;lat;lon;timestamp;temperature;humidity
40756;DHT22;26461;45.630;9.418;2022-10-16T00:01:35;18.00;99.90
40756;DHT22;26461;45.630;9.418;2022-10-16T00:04:45;18.10;99.90
40756;DHT22;26461;45.630;9.418;2022-10-16T00:07:55;18.10;99.90
40756;DHT22;26461;45.630;9.418;2022-10-16T00:11:18;18.10;99.90
40756;DHT22;26461;45.630;9.418;2022-10-16T00:14:28;18.10;99.90
40756;DHT22;26461;45.630;9.418;2022-10-16T00:17:38;18.10;99.90
40756;DHT22;26461;45.630;9.418;2022-10-16T00:20:48;18.10;99.90
40756;DHT22;26461;45.630;9.418;2022-10-16T00:24:17;18.10;99.90
40756;DHT22;26461;45.630;9.418;2022-10-16T00:27:27;18.10;99.90
40756;DHT22;26461;45.630;9.418;2022-10-16T00:30:38;18.00;99.90
40756;DHT22;26461;45.630;9.418;2022-10-16T00:33:48;18.00;99.90
40756;DHT22;26461;45.630;9.418;2022-10-16T00:36:58;18.00;99.90
40756;DHT22;26461;45.630;9.418;2022-10-16T00:40:09;18.00;99.90
40756;DHT22;26461;45.630;9.418;2022-10-16T00:43:52;18.00;99.90
40756;DHT22;26461;45.630;9.418;2022-10-16T00:47:03;18.00;99.90
40756;DHT22;26461;45.630;9.418;2022-10-16T00:53:32;18.00;99.90
40756;DHT22;26461;45.630;9.418;2022-10-16T00:56:43;18.00;99.90
40756;DHT22;26461;45.630;9.418;2022-10-16T00:59:54;18.10;99.90
40756;DHT22;26461;45.630;9.418;2022-10-16T01:03:29;18.00;99.90
40756;DHT22;26461;45.630;9.418;2022-10-16T01:10:35;18.00;99.90
40756;DHT22;26461;45.630;9.418;2022-10-16T01:13:51;18.00;99.90
40756;DHT22;26461;45.630;9.418;2022-10-16T01:17:15;18.00;99.90
40756;DHT22;26461;45.630;9.418;2022-10-16T01:20:37;18.00;99.90
40756;DHT22;26461;45.630;9.418;2022-10-16T01:27:30;18.00;99.90
40756;DHT22;26461;45.630;9.418;2022-10-16T01:30:44;18.00;99.90
40756;DHT22;26461;45.630;9.418;2022-10-16T01:34:05;18.00;99.90
40756;DHT22;26461;45.630;9.418;2022-10-16T01:37:23;18.00;99.90
40756;DHT22;26461;45.630;9.418;2022-10-16T01:40:38;18.00;99.90
40756;DHT22;26461;45.630;9.418;2022-10-16T01:44:02;18.00;99.90
40756;DHT22;26461;45.630;9.418;2022-10-16T01:47:13;18.00;99.90
40756;DHT22;26461;45.630;9.418;2022-10-16T01:50:24;18.00;99.90
40756;DHT22;26461;45.630;9.418;2022-10-16T01:53:37;18.00;99.90
40756;DHT22;26461;45.630;9.418;2022-10-16T01:56:48;18.00;99.90
40756;DHT22;26461;45.630;9.418;2022-10-16T02:00:04;18.00;99.90
40756;DHT22;26461;45.630;9.418;2022-10-16T02:03:19;18.00;99.90
40756;DHT22;26461;45.630;9.418;2022-10-16T02:06:30;18.00;99.90
40756;DHT22;26461;45.630;9.418;2022-10-16T02:09:40;18.00;99.90
40756;DHT22;26461;45.630;9.418;2022-10-16T02:13:04;18.00;99.90
40756;DHT22;26461;45.630;9.418;2022-10-16T02:16:15;18.00;99.90
40756;DHT22;26461;45.630;9.418;2022-10-16T02:19:25;18.00;99.90
40756;DHT22;26461;45.630;9.418;2022-10-16T02:22:39;18.00;99.90
40756;DHT22;26461;45.630;9.418;2022-10-16T02:25:50;18.00;99.90
40756;DHT22;26461;45.630;9.418;2022-10-16T02:29:06;18.00;99.90
40756;DHT22;26461;45.630;9.418;2022-10-16T02:32:21;18.00;99.90
40756;DHT22;26461;45.630;9.418;2022-10-16T02:35:32;18.00;99.90
40756;DHT22;26461;45.630;9.418;2022-10-16T02:38:43;18.00;99.90
40756;DHT22;26461;45.630;9.418;2022-10-16T02:41:53;18.00;99.90
40756;DHT22;26461;45.630;9.418;2022-10-16T02:45:05;18.00;99.90
40756;DHT22;26461;45.630;9.418;2022-10-16T02:48:16;18.00;99.90
40756;DHT22;26461;45.630;9.418;2022-10-16T02:51:26;18.00;99.90
40756;DHT22;26461;45.630;9.418;2022-10-16T02:54:36;17.90;99.90
40756;DHT22;26461;45.630;9.418;2022-10-16T02:57:46;18.00;99.90
40756;DHT22;26461;45.630;9.418;2022-10-16T03:00:56;17.90;99.90
40756;DHT22;26461;45.630;9.418;2022-10-16T03:04:06;17.90;99.90
40756;DHT22;26461;45.630;9.418;2022-10-16T03:07:16;17.90;99.90
40756;DHT22;26461;45.630;9.418;2022-10-16T03:10:26;17.90;99.90
40756;DHT22;26461;45.630;9.418;2022-10-16T03:13:36;17.90;99.90
40756;DHT22;26461;45.630;9.418;2022-10-16T03:16:46;17.90;99.90
40756;DHT22;26461;45.630;9.418;2022-10-16T03:19:55;17.90;99.90
40756;DHT22;26461;45.630;9.418;2022-10-16T03:23:06;17.90;99.90
40756;DHT22;26461;45.630;9.418;2022-10-16T03:26:17;17.90;99.90
40756;DHT22;26461;45.630;9.418;2022-10-16T03:29:27;17.80;99.90
40756;DHT22;26461;45.630;9.418;2022-10-16T03:32:39;17.80;99.90
40756;DHT22;26461;45.630;9.418;2022-10-16T03:35:53;17.80;99.90
40756;DHT22;26461;45.630;9.418;2022-10-16T03:39:04;17.80;99.90
40756;DHT22;26461;45.630;9.418;2022-10-16T03:42:14;17.80;99.90
40756;DHT22;26461;45.630;9.418;2022-10-16T03:45:24;17.80;99.90
40756;DHT22;26461;45.630;9.418;2022-10-16T03:48:35;17.80;99.90
40756;DHT22;26461;45.630;9.418;2022-10-16T03:51:45;17.70;99.90
40756;DHT22;26461;45.630;9.418;2022-10-16T03:54:55;17.70;99.90
40756;DHT22;26461;45.630;9.418;2022-10-16T03:58:05;17.70;99.90
40756;DHT22;26461;45.630;9.418;2022-10-16T04:01:15;17.70;99.90
40756;DHT22;26461;45.630;9.418;2022-10-16T04:04:25;17.70;99.90
40756;DHT22;26461;45.630;9.418;2022-10-16T04:07:35;17.70;99.90
40756;DHT22;26461;45.630;9.418;2022-10-16T04:10:45;17.70;99.90
40756;DHT22;26461;45.630;9.418;2022-10-16T04:13:55;17.70;99.90
40756;DHT22;26461;45.630;9.418;2022-10-16T04:17:05;17.70;99.90
40756;DHT22;26461;45.630;9.418;2022-10-16T04:20:15;17.60;99.90
40756;DHT22;26461;45.630;9.418;2022-10-16T04:23:25;17.60;99.90
40756;DHT22;26461;45.630;9.418;2022-10-16T04:26:35;17.60;99.90
40756;DHT22;26461;45.630;9.418;2022-10-16T04:29:45;17.60;99.90
40756;DHT22;26461;45.630;9.418;2022-10-16T04:32:55;17.60;99.90
40756;DHT22;26461;45.630;9.418;2022-10-16T04:36:05;17.60;99.90
40756;DHT22;26461;45.630;9.418;2022-10-16T04:39:16;17.60;99.90
40756;DHT22;26461;45.630;9.418;2022-10-16T04:42:26;17.50;99.90
40756;DHT22;26461;45.630;9.418;2022-10-16T04:45:36;17.50;99.90
40756;DHT22;26461;45.630;9.418;2022-10-16T04:48:45;17.50;99.90
40756;DHT22;26461;45.630;9.418;2022-10-16T04:51:56;17.50;99.90
40756;DHT22;26461;45.630;9.418;2022-10-16T04:55:07;17.50;99.90
40756;DHT22;26461;45.630;9.418;2022-10-16T04:58:17;17.40;99.90
40756;DHT22;26461;45.630;9.418;2022-10-16T05:01:27;17.40;99.90
40756;DHT22;26461;45.630;9.418;2022-10-16T05:04:37;17.40;99.90
40756;DHT22;26461;45.630;9.418;2022-10-16T05:07:47;17.40;99.90
40756;DHT22;26461;45.630;9.418;2022-10-16T05:10:59;17.40;99.90
40756;DHT22;26461;45.630;9.418;2022-10-16T05:14:09;17.40;99.90
40756;DHT22;26461;45.630;9.418;2022-10-16T05:17:19;17.30;99.90
40756;DHT22;26461;45.630;9.418;2022-10-16T05:20:29;17.30;99.90
40756;DHT22;26461;45.630;9.418;2022-10-16T05:23:39;17.30;99.90
40756;DHT22;26461;45.630;9.418;2022-10-16T05:26:49;17.30;99.90
40756;DHT22;26461;45.630;9.418;2022-10-16T05:30:00;17.30;99.90
40756;DHT22;26461;45.630;9.418;2022-10-16T05:33:10;17.30;99.90
40756;DHT22;26461;45.630;9.418;2022-10-16T05:36:20;17.30;99.90
40756;DHT22;26461;45.630;9.418;2022-10-16T05:39:30;17.20;99.90
40756;DHT22;26461;45.630;9.418;2022-10-16T05:42:40;17.30;99.90
40756;DHT22;26461;45.630;9.418;2022-10-16T05:46:08;17.20;99.90
40756;DHT22;26461;45.630;9.418;2022-10-16T05:49:18;17.20;99.90
40756;DHT22;26461;45.630;9.418;2022-10-16T05:52:29;17.20;99.90
40756;DHT22;26461;45.630;9.418;2022-10-16T05:55:38;17.20;99.90
40756;DHT22;26461;45.630;9.418;2022-10-16T05:58:48;17.20;99.90
40756;DHT22;26461;45.630;9.418;2022-10-16T06:01:58;17.20;99.90
40756;DHT22;26461;45.630;9.418;2022-10-16T06:05:08;17.30;99.90
40756;DHT22;26461;45.630;9.418;2022-10-16T06:08:13;17.30;99.90
40756;DHT22;26461;45.630;9.418;2022-10-16T06:11:29;17.30;99.90
40756;DHT22;26461;45.630;9.418;2022-10-16T06:14:39;17.20;99.90
40756;DHT22;26461;45.630;9.418;2022-10-16T06:17:49;17.30;99.90
40756;DHT22;26461;45.630;9.418;2022-10-16T06:20:58;17.30;99.90
40756;DHT22;26461;45.630;9.418;2022-10-16T06:24:09;17.30;99.90
40756;DHT22;26461;45.630;9.418;2022-10-16T06:27:20;17.30;99.90
40756;DHT22;26461;45.630;9.418;2022-10-16T06:30:30;17.40;99.90
40756;DHT22;26461;45.630;9.418;2022-10-16T06:33:40;17.40;99.90
40756;DHT22;26461;45.630;9.418;2022-10-16T06:36:50;17.40;99.90
40756;DHT22;26461;45.630;9.418;2022-10-16T06:40:02;17.40;99.90
40756;DHT22;26461;45.630;9.418;2022-10-16T06:43:08;17.50;99.90
40756;DHT22;26461;45.630;9.418;2022-10-16T06:46:21;17.50;99.90
40756;DHT22;26461;45.630;9.418;2022-10-16T06:49:32;17.50;99.90
40756;DHT22;26461;45.630;9.418;2022-10-16T06:52:42;17.50;99.90
40756;DHT22;26461;45.630;9.418;2022-10-16T06:55:52;17.60;99.90
40756;DHT22;26461;45.630;9.418;2022-10-16T06:59:02;17.60;99.90
40756;DHT22;26461;45.630;9.418;2022-10-16T07:02:13;17.60;99.90
40756;DHT22;26461;45.630;9.418;2022-10-16T07:05:23;17.70;99.90
40756;DHT22;26461;45.630;9.418;2022-10-16T07:08:36;17.70;99.90
40756;DHT22;26461;45.630;9.418;2022-10-16T07:11:47;17.70;99.90
40756;DHT22;26461;45.630;9.418;2022-10-16T07:14:57;17.80;99.90
40756;DHT22;26461;45.630;9.418;2022-10-16T07:18:07;17.80;99.90
40756;DHT22;26461;45.630;9.418;2022-10-16T07:21:19;17.80;99.90
40756;DHT22;26461;45.630;9.418;2022-10-16T07:24:25;17.90;99.90
40756;DHT22;26461;45.630;9.418;2022-10-16T07:27:34;17.90;99.90
40756;DHT22;26461;45.630;9.418;2022-10-16T07:30:44;18.00;99.90
40756;DHT22;26461;45.630;9.418;2022-10-16T07:33:54;18.00;99.90
40756;DHT22;26461;45.630;9.418;2022-10-16T07:37:04;18.10;99.90
40756;DHT22;26461;45.630;9.418;2022-10-16T07:40:14;18.10;99.90
40756;DHT22;26461;45.630;9.418;2022-10-16T07:43:24;18.20;99.90
40756;DHT22;26461;45.630;9.418;2022-10-16T07:46:35;18.20;99.90
40756;DHT22;26461;45.630;9.418;2022-10-16T07:49:45;18.30;99.90
40756;DHT22;26461;45.630;9.418;2022-10-16T07:52:55;18.30;99.90
40756;DHT22;26461;45.630;9.418;2022-10-16T07:56:06;18.40;99.90
40756;DHT22;26461;45.630;9.418;2022-10-16T07:59:17;18.40;99.90
40756;DHT22;26461;45.630;9.418;2022-10-16T08:02:27;18.50;99.90
40756;DHT22;26461;45.630;9.418;2022-10-16T08:05:36;18.50;99.90
40756;DHT22;26461;45.630;9.418;2022-10-16T08:08:47;18.50;99.90
40756;DHT22;26461;45.630;9.418;2022-10-16T08:11:57;18.60;99.90
40756;DHT22;26461;45.630;9.418;2022-10-16T08:15:08;18.60;99.90
40756;DHT22;26461;45.630;9.418;2022-10-16T08:18:18;18.70;99.90
40756;DHT22;26461;45.630;9.418;2022-10-16T08:21:28;18.70;99.90
40756;DHT22;26461;45.630;9.418;2022-10-16T08:24:38;18.70;99.90
40756;DHT22;26461;45.630;9.418;2022-10-16T08:27:47;18.70;99.90
40756;DHT22;26461;45.630;9.418;2022-10-16T08:31:15;18.70;99.90
40756;DHT22;26461;45.630;9.418;2022-10-16T08:34:25;18.70;99.90
40756;DHT22;26461;45.630;9.418;2022-10-16T08:37:35;18.70;99.90
40756;DHT22;26461;45.630;9.418;2022-10-16T08:40:45;18.80;99.90
40756;DHT22;26461;45.630;9.418;2022-10-16T08:44:20;18.80;99.90
40756;DHT22;26461;45.630;9.418;2022-10-16T08:47:42;18.80;99.90
40756;DHT22;26461;45.630;9.418;2022-10-16T08:50:54;18.80;99.90
40756;DHT22;26461;45.630;9.418;2022-10-16T08:57:32;18.90;99.90
40756;DHT22;26461;45.630;9.418;2022-10-16T09:00:53;18.90;99.90
40756;DHT22;26461;45.630;9.418;2022-10-16T09:11:53;19.10;99.90
40756;DHT22;26461;45.630;9.418;2022-10-16T09:19:09;19.10;99.90
40756;DHT22;26461;45.630;9.418;2022-10-16T09:22:22;19.20;99.90
40756;DHT22;26461;45.630;9.418;2022-10-16T09:25:35;19.20;99.90
40756;DHT22;26461;45.630;9.418;2022-10-16T09:28:45;19.30;99.90
40756;DHT22;26461;45.630;9.418;2022-10-16T09:31:57;19.40;99.90
40756;DHT22;26461;45.630;9.418;2022-10-16T09:35:20;19.50;99.90
40756;DHT22;26461;45.630;9.418;2022-10-16T09:38:34;19.50;99.90
40756;DHT22;26461;45.630;9.418;2022-10-16T09:41:45;19.60;99.90
40756;DHT22;26461;45.630;9.418;2022-10-16T09:44:56;19.60;99.90
40756;DHT22;26461;45.630;9.418;2022-10-16T09:48:17;19.60;99.90
40756;DHT22;26461;45.630;9.418;2022-10-16T09:51:32;19.70;99.90
40756;DHT22;26461;45.630;9.418;2022-10-16T09:55:09;19.70;99.90
40756;DHT22;26461;45.630;9.418;2022-10-16T09:58:22;19.80;99.90
40756;DHT22;26461;45.630;9.418;2022-10-16T10:04:52;19.90;99.90
40756;DHT22;26461;45.630;9.418;2022-10-16T10:08:12;19.90;99.90
40756;DHT22;26461;45.630;9.418;2022-10-16T10:11:53;19.90;99.90
40756;DHT22;26461;45.630;9.418;2022-10-16T10:15:13;19.90;99.90
40756;DHT22;26461;45.630;9.418;2022-10-16T10:18:27;20.00;99.90
40756;DHT22;26461;45.630;9.418;2022-10-16T10:21:38;20.00;99.90
40756;DHT22;26461;45.630;9.418;2022-10-16T10:31:38;20.10;99.90
40756;DHT22;26461;45.630;9.418;2022-10-16T10:35:12;20.20;99.90
40756;DHT22;26461;45.630;9.418;2022-10-16T10:45:26;20.30;99.90
40756;DHT22;26461;45.630;9.418;2022-10-16T11:02:05;20.40;99.90
40756;DHT22;26461;45.630;9.418;2022-10-16T11:15:32;20.60;99.90
40756;DHT22;26461;45.630;9.418;2022-10-16T11:18:50;20.60;99.90
40756;DHT22;26461;45.630;9.418;2022-10-16T11:25:32;20.70;99.90
40756;DHT22;26461;45.630;9.418;2022-10-16T11:28:54;20.80;99.90
40756;DHT22;26461;45.630;9.418;2022-10-16T11:32:11;20.90;99.90
40756;DHT22;26461;45.630;9.418;2022-10-16T11:35:37;20.90;99.90
40756;DHT22;26461;45.630;9.418;2022-10-16T11:42:16;21.00;99.90
40756;DHT22;26461;45.630;9.418;2022-10-16T11:45:47;21.00;99.90
40756;DHT22;26461;45.630;9.418;2022-10-16T11:49:15;21.10;99.90
40756;DHT22;26461;45.630;9.418;2022-10-16T11:52:38;21.10;99.90
40756;DHT22;26461;45.630;9.418;2022-10-16T11:55:46;21.10;99.90
40756;DHT22;26461;45.630;9.418;2022-10-16T12:02:39;21.10;99.90
40756;DHT22;26461;45.630;9.418;2022-10-16T12:09:31;21.20;99.90
40756;DHT22;26461;45.630;9.418;2022-10-16T12:12:41;21.20;99.90
40756;DHT22;26461;45.630;9.418;2022-10-16T12:19:29;21.40;99.60
40756;DHT22;26461;45.630;9.418;2022-10-16T12:23:05;21.50;99.80
40756;DHT22;26461;45.630;9.418;2022-10-16T12:26:28;21.60;99.30
40756;DHT22;26461;45.630;9.418;2022-10-16T12:29:41;21.70;98.90
40756;DHT22;26461;45.630;9.418;2022-10-16T12:33:00;21.70;98.40
40756;DHT22;26461;45.630;9.418;2022-10-16T12:36:26;21.70;98.60
40756;DHT22;26461;45.630;9.418;2022-10-16T12:39:37;21.70;98.70
40756;DHT22;26461;45.630;9.418;2022-10-16T12:42:47;21.80;98.80
40756;DHT22;26461;45.630;9.418;2022-10-16T12:46:04;21.90;98.60
40756;DHT22;26461;45.630;9.418;2022-10-16T12:49:47;22.00;98.70
40756;DHT22;26461;45.630;9.418;2022-10-16T12:53:00;22.00;98.70
40756;DHT22;26461;45.630;9.418;2022-10-16T12:56:32;22.10;98.10
40756;DHT22;26461;45.630;9.418;2022-10-16T13:00:09;22.20;97.90
40756;DHT22;26461;45.630;9.418;2022-10-16T13:10:36;22.20;97.60
40756;DHT22;26461;45.630;9.418;2022-10-16T13:18:05;22.30;96.50
40756;DHT22;26461;45.630;9.418;2022-10-16T13:21:56;22.40;96.80
40756;DHT22;26461;45.630;9.418;2022-10-16T13:25:22;22.40;96.70
40756;DHT22;26461;45.630;9.418;2022-10-16T13:28:34;22.50;96.50
40756;DHT22;26461;45.630;9.418;2022-10-16T13:31:45;22.50;96.80
40756;DHT22;26461;45.630;9.418;2022-10-16T13:34:55;22.60;96.70
40756;DHT22;26461;45.630;9.418;2022-10-16T13:38:17;22.70;96.50
40756;DHT22;26461;45.630;9.418;2022-10-16T13:41:29;22.80;96.70
40756;DHT22;26461;45.630;9.418;2022-10-16T13:44:43;22.90;96.60
40756;DHT22;26461;45.630;9.418;2022-10-16T13:48:09;23.00;96.10
40756;DHT22;26461;45.630;9.418;2022-10-16T13:51:23;23.10;96.20
40756;DHT22;26461;45.630;9.418;2022-10-16T13:54:32;23.10;95.60
40756;DHT22;26461;45.630;9.418;2022-10-16T13:57:42;23.20;95.50
40756;DHT22;26461;45.630;9.418;2022-10-16T14:00:58;23.20;95.60
40756;DHT22;26461;45.630;9.418;2022-10-16T14:04:11;23.30;95.60
40756;DHT22;26461;45.630;9.418;2022-10-16T14:07:25;23.30;95.40
40756;DHT22;26461;45.630;9.418;2022-10-16T14:10:35;23.40;95.40
40756;DHT22;26461;45.630;9.418;2022-10-16T14:13:47;23.50;95.10
40756;DHT22;26461;45.630;9.418;2022-10-16T14:16:57;23.60;95.00
40756;DHT22;26461;45.630;9.418;2022-10-16T14:20:14;23.70;95.10
40756;DHT22;26461;45.630;9.418;2022-10-16T14:23:38;23.80;94.80
40756;DHT22;26461;45.630;9.418;2022-10-16T14:26:49;23.90;94.80
40756;DHT22;26461;45.630;9.418;2022-10-16T14:30:16;23.90;94.60
40756;DHT22;26461;45.630;9.418;2022-10-16T14:36:35;24.00;95.10
40756;DHT22;26461;45.630;9.418;2022-10-16T14:39:49;24.00;94.60
40756;DHT22;26461;45.630;9.418;2022-10-16T14:43:01;24.10;95.60
40756;DHT22;26461;45.630;9.418;2022-10-16T14:46:14;24.10;96.70
40756;DHT22;26461;45.630;9.418;2022-10-16T14:49:20;24.10;95.80
40756;DHT22;26461;45.630;9.418;2022-10-16T14:52:27;24.00;96.20
40756;DHT22;26461;45.630;9.418;2022-10-16T14:55:38;24.00;96.50
40756;DHT22;26461;45.630;9.418;2022-10-16T14:58:43;24.00;97.80
40756;DHT22;26461;45.630;9.418;2022-10-16T15:01:50;23.90;98.00
40756;DHT22;26461;45.630;9.418;2022-10-16T15:05:21;23.90;97.70
40756;DHT22;26461;45.630;9.418;2022-10-16T15:08:31;23.80;97.40
40756;DHT22;26461;45.630;9.418;2022-10-16T15:11:41;23.80;97.30
40756;DHT22;26461;45.630;9.418;2022-10-16T15:14:48;23.70;98.10
40756;DHT22;26461;45.630;9.418;2022-10-16T15:18:00;23.70;98.80
40756;DHT22;26461;45.630;9.418;2022-10-16T15:21:13;23.60;99.00
40756;DHT22;26461;45.630;9.418;2022-10-16T15:24:25;23.50;99.20
40756;DHT22;26461;45.630;9.418;2022-10-16T15:27:30;23.40;99.20
40756;DHT22;26461;45.630;9.418;2022-10-16T15:30:40;23.40;99.60
40756;DHT22;26461;45.630;9.418;2022-10-16T15:33:46;23.40;99.50
40756;DHT22;26461;45.630;9.418;2022-10-16T15:37:03;23.30;99.60
40756;DHT22;26461;45.630;9.418;2022-10-16T15:40:09;23.20;99.80
40756;DHT22;26461;45.630;9.418;2022-10-16T15:43:22;23.10;99.90
40756;DHT22;26461;45.630;9.418;2022-10-16T15:46:32;23.10;99.90
40756;DHT22;26461;45.630;9.418;2022-10-16T15:49:45;23.00;99.90
40756;DHT22;26461;45.630;9.418;2022-10-16T15:52:57;22.90;99.90
40756;DHT22;26461;45.630;9.418;2022-10-16T15:56:09;22.80;99.90
40756;DHT22;26461;45.630;9.418;2022-10-16T15:59:20;22.70;99.90
40756;DHT22;26461;45.630;9.418;2022-10-16T16:02:30;22.60;99.90
40756;DHT22;26461;45.630;9.418;2022-10-16T16:05:41;22.50;99.90
40756;DHT22;26461;45.630;9.418;2022-10-16T16:08:51;22.50;99.90
40756;DHT22;26461;45.630;9.418;2022-10-16T16:12:01;22.40;99.90
40756;DHT22;26461;45.630;9.418;2022-10-16T16:15:13;22.30;99.90
40756;DHT22;26461;45.630;9.418;2022-10-16T16:18:23;22.20;99.90
40756;DHT22;26461;45.630;9.418;2022-10-16T16:21:34;22.10;99.90
40756;DHT22;26461;45.630;9.418;2022-10-16T16:24:45;22.00;99.90
40756;DHT22;26461;45.630;9.418;2022-10-16T16:27:55;21.90;99.90
40756;DHT22;26461;45.630;9.418;2022-10-16T16:31:06;21.80;99.90
40756;DHT22;26461;45.630;9.418;2022-10-16T16:34:16;21.70;99.90
40756;DHT22;26461;45.630;9.418;2022-10-16T16:37:27;21.70;99.90
40756;DHT22;26461;45.630;9.418;2022-10-16T16:40:38;21.60;99.90
40756;DHT22;26461;45.630;9.418;2022-10-16T16:43:49;21.50;99.90
40756;DHT22;26461;45.630;9.418;2022-10-16T16:47:05;21.40;99.90
40756;DHT22;26461;45.630;9.418;2022-10-16T16:50:17;21.40;99.90
40756;DHT22;26461;45.630;9.418;2022-10-16T16:53:27;21.40;99.90
40756;DHT22;26461;45.630;9.418;2022-10-16T16:56:38;21.40;99.80
40756;DHT22;26461;45.630;9.418;2022-10-16T16:59:50;21.30;99.70
40756;DHT22;26461;45.630;9.418;2022-10-16T17:03:00;21.40;99.70
40756;DHT22;26461;45.630;9.418;2022-10-16T17:06:12;21.30;99.70
40756;DHT22;26461;45.630;9.418;2022-10-16T17:09:23;21.30;99.80
40756;DHT22;26461;45.630;9.418;2022-10-16T17:12:33;21.30;99.80
40756;DHT22;26461;45.630;9.418;2022-10-16T17:15:47;21.20;99.90
40756;DHT22;26461;45.630;9.418;2022-10-16T17:19:00;21.20;99.90
40756;DHT22;26461;45.630;9.418;2022-10-16T17:22:10;21.10;99.90
40756;DHT22;26461;45.630;9.418;2022-10-16T17:25:23;21.10;99.90
40756;DHT22;26461;45.630;9.418;2022-10-16T17:28:33;21.00;99.90
40756;DHT22;26461;45.630;9.418;2022-10-16T17:31:38;21.10;99.90
40756;DHT22;26461;45.630;9.418;2022-10-16T17:34:49;21.00;99.90
40756;DHT22;26461;45.630;9.418;2022-10-16T17:37:54;21.00;99.90
40756;DHT22;26461;45.630;9.418;2022-10-16T17:41:22;21.00;99.90
40756;DHT22;26461;45.630;9.418;2022-10-16T17:44:34;20.90;99.90
40756;DHT22;26461;45.630;9.418;2022-10-16T17:47:39;20.90;99.90
40756;DHT22;26461;45.630;9.418;2022-10-16T17:50:52;20.80;99.90
40756;DHT22;26461;45.630;9.418;2022-10-16T17:54:02;20.80;99.90
40756;DHT22;26461;45.630;9.418;2022-10-16T17:57:12;20.80;99.90
40756;DHT22;26461;45.630;9.418;2022-10-16T18:00:22;20.80;99.90
40756;DHT22;26461;45.630;9.418;2022-10-16T18:03:33;20.70;99.90
40756;DHT22;26461;45.630;9.418;2022-10-16T18:06:44;20.60;99.90
40756;DHT22;26461;45.630;9.418;2022-10-16T18:09:55;20.60;99.90
40756;DHT22;26461;45.630;9.418;2022-10-16T18:13:06;20.60;99.90
40756;DHT22;26461;45.630;9.418;2022-10-16T18:16:16;20.60;99.90
40756;DHT22;26461;45.630;9.418;2022-10-16T18:19:26;20.60;99.90
40756;DHT22;26461;45.630;9.418;2022-10-16T18:22:36;20.50;99.90
40756;DHT22;26461;45.630;9.418;2022-10-16T18:25:49;20.40;99.90
40756;DHT22;26461;45.630;9.418;2022-10-16T18:28:59;20.40;99.90
40756;DHT22;26461;45.630;9.418;2022-10-16T18:32:10;20.40;99.90
40756;DHT22;26461;45.630;9.418;2022-10-16T18:35:15;20.40;99.90
40756;DHT22;26461;45.630;9.418;2022-10-16T18:38:25;20.40;99.90
40756;DHT22;26461;45.630;9.418;2022-10-16T18:41:31;20.30;99.90
40756;DHT22;26461;45.630;9.418;2022-10-16T18:44:40;20.30;99.90
40756;DHT22;26461;45.630;9.418;2022-10-16T18:47:51;20.30;99.90
40756;DHT22;26461;45.630;9.418;2022-10-16T18:54:29;20.20;99.90
40756;DHT22;26461;45.630;9.418;2022-10-16T18:57:37;20.20;99.90
40756;DHT22;26461;45.630;9.418;2022-10-16T19:00:49;20.20;99.90
40756;DHT22;26461;45.630;9.418;2022-10-16T19:04:04;20.10;99.90
40756;DHT22;26461;45.630;9.418;2022-10-16T19:07:12;20.10;99.90
40756;DHT22;26461;45.630;9.418;2022-10-16T19:10:24;20.10;99.90
40756;DHT22;26461;45.630;9.418;2022-10-16T19:13:32;20.10;99.90
40756;DHT22;26461;45.630;9.418;2022-10-16T19:16:42;20.00;99.90
40756;DHT22;26461;45.630;9.418;2022-10-16T19:19:49;19.90;99.90
40756;DHT22;26461;45.630;9.418;2022-10-16T19:22:58;19.90;99.90
40756;DHT22;26461;45.630;9.418;2022-10-16T19:26:07;19.90;99.90
40756;DHT22;26461;45.630;9.418;2022-10-16T19:29:15;19.80;99.90
40756;DHT22;26461;45.630;9.418;2022-10-16T19:32:26;19.80;99.90
40756;DHT22;26461;45.630;9.418;2022-10-16T19:35:39;19.70;99.90
40756;DHT22;26461;45.630;9.418;2022-10-16T19:39:00;19.70;99.90
40756;DHT22;26461;45.630;9.418;2022-10-16T19:42:11;19.70;99.90
40756;DHT22;26461;45.630;9.418;2022-10-16T19:45:27;19.60;99.90
40756;DHT22;26461;45.630;9.418;2022-10-16T19:48:40;19.70;99.90
40756;DHT22;26461;45.630;9.418;2022-10-16T19:51:52;19.60;99.90
40756;DHT22;26461;45.630;9.418;2022-10-16T19:54:59;19.60;99.90
40756;DHT22;26461;45.630;9.418;2022-10-16T19:58:05;19.60;99.90
40756;DHT22;26461;45.630;9.418;2022-10-16T20:01:23;19.60;99.90
40756;DHT22;26461;45.630;9.418;2022-10-16T20:04:37;19.60;99.90
40756;DHT22;26461;45.630;9.418;2022-10-16T20:07:45;19.60;99.90
40756;DHT22;26461;45.630;9.418;2022-10-16T20:10:54;19.50;99.90
40756;DHT22;26461;45.630;9.418;2022-10-16T20:14:06;19.50;99.90
40756;DHT22;26461;45.630;9.418;2022-10-16T20:17:16;19.50;99.90
40756;DHT22;26461;45.630;9.418;2022-10-16T20:20:29;19.40;99.90
40756;DHT22;26461;45.630;9.418;2022-10-16T20:23:47;19.40;99.90
40756;DHT22;26461;45.630;9.418;2022-10-16T20:27:00;19.30;99.90
40756;DHT22;26461;45.630;9.418;2022-10-16T20:30:07;19.30;99.90
40756;DHT22;26461;45.630;9.418;2022-10-16T20:33:15;19.30;99.90
40756;DHT22;26461;45.630;9.418;2022-10-16T20:36:25;19.20;99.90
40756;DHT22;26461;45.630;9.418;2022-10-16T20:39:33;19.20;99.90
40756;DHT22;26461;45.630;9.418;2022-10-16T20:42:44;19.20;99.90
40756;DHT22;26461;45.630;9.418;2022-10-16T20:46:01;19.10;99.90
40756;DHT22;26461;45.630;9.418;2022-10-16T20:49:12;19.20;99.90
40756;DHT22;26461;45.630;9.418;2022-10-16T20:52:33;19.20;99.90
40756;DHT22;26461;45.630;9.418;2022-10-16T20:55:43;19.10;99.90
40756;DHT22;26461;45.630;9.418;2022-10-16T20:58:56;19.20;99.90
40756;DHT22;26461;45.630;9.418;2022-10-16T21:02:08;19.20;99.90
40756;DHT22;26461;45.630;9.418;2022-10-16T21:05:19;19.20;99.90
40756;DHT22;26461;45.630;9.418;2022-10-16T21:08:32;19.10;99.90
40756;DHT22;26461;45.630;9.418;2022-10-16T21:11:38;19.10;99.90
40756;DHT22;26461;45.630;9.418;2022-10-16T21:14:43;19.10;99.90
40756;DHT22;26461;45.630;9.418;2022-10-16T21:17:49;19.10;99.90
40756;DHT22;26461;45.630;9.418;2022-10-16T21:21:00;19.10;99.90
40756;DHT22;26461;45.630;9.418;2022-10-16T21:24:14;19.20;99.90
40756;DHT22;26461;45.630;9.418;2022-10-16T21:27:23;19.10;99.90
40756;DHT22;26461;45.630;9.418;2022-10-16T21:30:34;19.10;99.90
40756;DHT22;26461;45.630;9.418;2022-10-16T21:33:44;19.10;99.90
40756;DHT22;26461;45.630;9.418;2022-10-16T21:36:55;19.10;99.90
40756;DHT22;26461;45.630;9.418;2022-10-16T21:40:02;19.10;99.90
40756;DHT22;26461;45.630;9.418;2022-10-16T21:43:26;19.10;99.90
40756;DHT22;26461;45.630;9.418;2022-10-16T21:46:38;19.00;99.90
40756;DHT22;26461;45.630;9.418;2022-10-16T21:49:48;19.00;99.90
40756;DHT22;26461;45.630;9.418;2022-10-16T21:52:58;19.00;99.90
40756;DHT22;26461;45.630;9.418;2022-10-16T21:56:15;18.90;99.90
40756;DHT22;26461;45.630;9.418;2022-10-16T21:59:26;18.80;99.90